Corpus Christi, TX

2:01 PM CDT on September 21, 2014 (GMT -0500)
Corpus Christi International | Change Station
CLOSE
Current Station
Airport
Location: Corpus Christi,
Elevation: 43 ft
Nearby Weather Stations

Elev 43 ft 27.77 °N, 97.51 °W | Updated 10 minutes ago

Mostly Cloudy
Mostly Cloudy
86 °F
Feels Like 96 °F
N
17
Wind Variable Wind from East

Today
High -- | Low -- °F
--% Chance of Precip.
Yesterday
High -- | Low -- °F
Precip. -- in
7:17 AM 7:27 PM
Waning Crescent, 6% visible
Pressure 29.97 in
Visibility 10.0 miles
Clouds Few 1700 ft
Scattered Clouds 9000 ft
Scattered Clouds 18000 ft
Mostly Cloudy 25000 ft
Heat Index 96 °F
Dew Point 76 °F
Humidity 72%
Rainfall 2.11 in
Snow Depth Not available.
UV 5 out of 12
Pollen 9.70 out of 12
Ozone Good
Flu Activity Not available.
METAR KCRP 211851Z 09015KT 10SM FEW017 SCT090 SCT180 BKN250 30/24 A2998 RMK AO2 SLP149 CB DSNT N S SW W TCU DSNT SW T03000244 $

More Conditions Fewer Conditions

Pressure 29.97 in
Visibility 10.0 miles
Clouds Few 1700 ft
Scattered Clouds 9000 ft
Scattered Clouds 18000 ft
Mostly Cloudy 25000 ft
Heat Index 96 °F
Dew Point 76 °F
Humidity 72%
Rainfall 2.11 in
Snow Depth Not available.
UV 5 out of 12
Pollen 9.70 out of 12
Ozone Good
Flu Activity Not available.
METAR KCRP 211851Z 09015KT 10SM FEW017 SCT090 SCT180 BKN250 30/24 A2998 RMK AO2 SLP149 CB DSNT N S SW W TCU DSNT SW T03000244 $

More Conditions Fewer Conditions

Nowcast | as of 1:51 PM CDT on September 21, 2014

Through 4 PM CDT...isolated showers will continue to affect portions of the coastal Bend and the middle Texas coastal waters. Rainfall will generally be from light to moderate with rainfall amounts less than a tenth of an inch an hour.

×

10-Day Weather Forecast

Almanac

Astronomy

Sep. 21, 2014 Rise Set
Actual Time 7:17 AM CDT 7:27 PM CDT
Civil Twilight 6:54 AM CDT 7:50 PM CDT
Nautical Twilight 6:26 AM CDT 8:17 PM CDT
Astronomical Twilight 5:59 AM CDT 8:45 PM CDT
Moon 5:02 AM CDT 5:56 PM CDT
Length of Visible Light 12h 56m
Length of Day
12h 09m
Tomorrow will be 1m 38s shorter.
Waning Crescent, 6% of the Moon is Illuminated
Today
Waning Crescent
Sep 24
New
Oct 1
First Quarter
Oct 8
Full
Oct 15
Last Quarter

Today's Extremes

State Highs State Lows

Community

WunderPhotos

Upload Photos

1,755,226 photos uploaded!

Nearby

Air Quality

  Air Quality AQ Index Pollutant
Yesterday Good
OZONE
Current Good
OZONE
Sunday Good
OZONE
Sunday Good
PM10
Monday Good
OZONE
Monday Good
PM10
Tuesday Good
OZONE
Tuesday Good
PM10

Snow Depth

Station Depth Elevation
No new snow has been reported.

Earthquake Activity

City Distance Mag. Time & Date
No recent earthquake activity has been reported nearby.
Minimum magnitude displayed is 2.5.

Coastal Water Temperatures

Place Temperature
Baffin Bay Point of Rocks, TX 84.0 °F
South Bird Island, TX 84.0 °F
Packery Channel, TX 84.0 °F
Port Aransas, TX 84.0 °F
Malaquite Beach (Corpus Christi), TX 84.0 °F

Nearby Weather Stations